Weather observations for the past three days for
Decatur, Pryor Field
Imperial (Metric)
Date Time (cdt) Wind (mph) Vis. (mi.) Weather Sky Cond. Temperature (ºF) Relative Humidity Wind Chill (°F) Heat Index (°F) Pressure Precipitation (in)
Air Dwpt 6 hour altimeter (in) sea level (mb) 1 hr 3 hr 6 hr
Max. Min.
05 17:53 S 13 10.00 Overcast BKN050 OVC080 75 55.9 52% 78 29.86 1010.8
05 16:53 S 16 10.00 Overcast OVC060 75 55 50% 78 29.87 1011.1
05 15:53 S 18 G 23 10.00 Partly Cloudy SCT075 77 53.1 43% 78 29.88 1011.4
05 14:53 S 14 10.00 Mostly Cloudy BKN120 75 53.1 46% 78 29.88 1011.4
05 13:53 S 13 10.00 Mostly Cloudy FEW035 SCT095 BKN120 75 51.1 43% 78 29.92 1012.6
05 12:53 SW 10 G 21 10.00 Fair CLR 77 48.9 79 59 37% 78 29.94 1013.4
05 11:53 S 16 10.00 Fair CLR 77 46.9 35% 78 29.96 1013.9
05 10:53 S 15 G 23 10.00 Fair CLR 73.9 50 43% 29.96 1013.9
05 09:53 Vrbl 7 10.00 Fair CLR 70 53.1 55% 29.95 1013.8
05 08:53 S 9 10.00 Fair CLR 66.9 53.1 61% 29.95 1013.8
05 07:53 S 10 10.00 Fair CLR 64 53.1 68% 29.95 1013.8
05 06:53 S 6 10.00 Fair CLR 59 52 61 55.9 78% 29.94 1013.3
05 05:53 S 6 10.00 Fair CLR 57.9 50 75% 29.91 1012.4
05 04:53 S 9 10.00 Fair CLR 60.1 50 70% 29.9 1011.8
05 03:53 S 10 10.00 Fair CLR 60.1 50 70% 29.89 1011.6
05 02:53 S 8 10.00 Fair CLR 59 50 72% 29.9 1012.1
05 01:53 S 7 10.00 Fair CLR 59 50 72% 29.91 1012.4
05 00:53 S 6 10.00 Fair CLR 60.1 50 75.9 60.1 70% 29.92 1012.7
04 23:53 S 7 10.00 Fair CLR 61 50 67% 29.92 1012.8
04 22:53 S 8 10.00 Fair CLR 63 50 63% 29.92 1012.7
04 21:53 S 8 10.00 A Few Clouds FEW070 66.9 48.9 53% 29.92 1012.7
04 20:53 S 7 10.00 Partly Cloudy SCT070 66.9 51.1 57% 29.91 1012.3
04 19:53 S 8 10.00 Fair CLR 71.1 50 47% 29.9 1012.1
04 18:53 S 15 10.00 Fair CLR 75.9 48 82 75.9 37% 78 29.89 1011.8
04 17:53 S 15 10.00 Fair CLR 79 48.9 35% 79 29.89 1011.9
04 16:53 S 14 G 29 10.00 Fair CLR 80.1 48 33% 79 29.91 1012.3
04 15:53 S 15 G 24 10.00 Fair CLR 81 48 32% 80 29.92 1012.6
04 14:53 S 13 G 24 10.00 A Few Clouds FEW065 80.1 48.9 34% 79 29.93 1013.1
04 13:53 SW 10 G 20 10.00 Fair CLR 80.1 51.1 37% 80 29.96 1014.0
04 12:53 SW 10 10.00 Fair CLR 79 51.1 80.1 53.1 38% 79 29.97 1014.6
04 11:53 SW 7 G 17 10.00 Fair CLR 75 51.1 43% 78 30 1015.5
04 10:53 SW 8 10.00 Fair CLR 73.9 51.1 45% 30.02 1016.2
04 09:53 SW 12 10.00 Fair CLR 70 48 46% 30.03 1016.4
04 08:53 S 6 10.00 Fair CLR 66 46.9 50% 30.04 1017.1
04 07:53 S 7 10.00 Fair CLR 61 46.9 60% 30.05 1017.1
04 06:53 Calm 10.00 Fair CLR 53.1 46.9 54 46 80% 30.03 1016.6
04 05:53 Calm 10.00 Fair CLR 46 44.1 93% 30.02 1016.2
04 04:53 SE 3 10.00 Fair CLR 48 45 89% 30.01 1016.0
04 03:53 Calm 10.00 Fair CLR 48 44.1 86% 30.01 1016.0
04 02:53 Calm 10.00 Fair CLR 52 44.1 75% 30.02 1016.1
04 01:53 Calm 10.00 Fair CLR 48.9 45 86% 30.03 1016.7
04 00:53 SE 5 10.00 Fair CLR 52 45 68 51.1 77% 30.04 1017.1
03 23:53 Calm 10.00 Fair CLR 52 46 80% 30.06 1017.6
03 22:53 SE 6 10.00 Fair CLR 55 46.9 74% 30.05 1017.3
03 21:53 SE 3 10.00 Fair CLR 53.1 45 74% 30.07 1018.2
03 20:53 Calm 10.00 Fair CLR 54 45 72% 30.06 1017.7
03 19:53 Calm 10.00 Fair CLR 57.9 44.1 60% 30.04 1017.1
03 18:53 Calm 10.00 Fair CLR 68 39.9 70 64 36% 30.05 1017.3
03 17:53 NW 7 10.00 Fair CLR 70 37 30% 30.06 1017.7
03 16:53 W 8 10.00 Fair CLR 70 36 29% 30.07 1018.0
03 15:53 NW 9 10.00 Fair CLR 69.1 37 31% 30.09 1018.7
03 14:53 Vrbl 7 10.00 Fair CLR 68 39.9 36% 30.12 1019.9
03 13:53 N 5 10.00 Fair CLR 66 39.9 39% 30.16 1021.0
03 12:53 W 5 10.00 Fair CLR 64 32 64.9 45 30% 30.17 1021.6
03 11:53 W 7 10.00 Fair CLR 62.1 34 35% 30.2 1022.4
03 10:53 W 3 10.00 Fair CLR 60.1 39.9 48% 30.2 1022.6
03 09:53 Calm 10.00 Fair CLR 57.9 43 58% 30.21 1022.8
03 08:53 S 3 10.00 Fair CLR 53.1 45 74% 30.21 1022.8
03 07:53 Calm 10.00 Fair CLR 51.1 44.1 77% 30.2 1022.3
03 06:53 Calm 9.00 Fair CLR 45 43 48.9 42.1 93% 30.19 1022.1
03 05:53 Calm 8.00 Fair CLR 43 41 93% 30.16 1021.2
03 04:53 Calm 9.00 Fair CLR 42.1 39.9 92% 30.15 1020.8
03 03:53 Calm 10.00 Fair CLR 44.1 41 89% 30.14 1020.6
03 02:53 Calm 10.00 Fair CLR 45 42.1 90% 30.14 1020.5
03 01:53 Calm 10.00 Fair CLR 46 43 89% 30.13 1020.1
03 00:53 Calm 10.00 Fair CLR 48 43 64.9 48 83% 30.12 1019.8
02 23:53 N 5 10.00 Fair CLR 50 42.1 74% 49 30.11 1019.5
02 22:53 N 6 10.00 Fair CLR 52 42.1 69% 30.1 1019.1
02 21:53 N 10 10.00 Fair CLR 55 42.1 62% 30.09 1018.6
02 20:53 Calm 10.00 Fair CLR 55 44.1 67% 30.05 1017.3
02 19:53 N 8 10.00 Fair CLR 60.1 39.9 48% 30.03 1016.4
02 18:53 NW 10 10.00 A Few Clouds FEW090 64.9 37.9 70 64.9 37% 30.01 1015.8
Date Time (cdt) Wind (mph) Vis. (mi.) Weather Sky Cond. Air Dwpt Max. Min. Relative Humidity Wind Chill (°F) Heat Index (°F) altimeter (in) sea level (mb) 1 hr 3 hr 6 hr
6 hour
Temperature (ºF) Pressure Precipitation (in)